sensor_id;sensor_type;location;lat;lon;timestamp;temperature;humidity
9103;DHT22;4587;51.434;6.788;2023-08-17T00:02:13;18.70;99.90
9103;DHT22;4587;51.434;6.788;2023-08-17T00:04:39;18.60;99.90
9103;DHT22;4587;51.434;6.788;2023-08-17T00:10:26;18.60;99.90
9103;DHT22;4587;51.434;6.788;2023-08-17T00:12:52;18.60;99.90
9103;DHT22;4587;51.434;6.788;2023-08-17T00:15:17;18.60;99.90
9103;DHT22;4587;51.434;6.788;2023-08-17T00:17:43;18.60;99.90
9103;DHT22;4587;51.434;6.788;2023-08-17T00:20:09;18.60;99.90
9103;DHT22;4587;51.434;6.788;2023-08-17T00:22:35;18.60;99.90
9103;DHT22;4587;51.434;6.788;2023-08-17T00:25:01;18.60;99.90
9103;DHT22;4587;51.434;6.788;2023-08-17T00:27:28;18.60;99.90
9103;DHT22;4587;51.434;6.788;2023-08-17T00:29:54;18.60;99.90
9103;DHT22;4587;51.434;6.788;2023-08-17T00:32:19;18.50;99.90
9103;DHT22;4587;51.434;6.788;2023-08-17T00:34:45;18.50;99.90
9103;DHT22;4587;51.434;6.788;2023-08-17T00:37:10;18.50;99.90
9103;DHT22;4587;51.434;6.788;2023-08-17T00:39:36;18.50;99.90
9103;DHT22;4587;51.434;6.788;2023-08-17T00:42:01;18.50;99.90
9103;DHT22;4587;51.434;6.788;2023-08-17T00:44:27;18.50;99.90
9103;DHT22;4587;51.434;6.788;2023-08-17T00:46:52;18.40;99.90
9103;DHT22;4587;51.434;6.788;2023-08-17T00:49:18;18.40;99.90
9103;DHT22;4587;51.434;6.788;2023-08-17T00:51:44;18.40;99.90
9103;DHT22;4587;51.434;6.788;2023-08-17T00:54:10;18.40;99.90
9103;DHT22;4587;51.434;6.788;2023-08-17T00:56:36;18.40;99.90
9103;DHT22;4587;51.434;6.788;2023-08-17T00:59:02;18.30;99.90
9103;DHT22;4587;51.434;6.788;2023-08-17T01:01:27;18.40;99.90
9103;DHT22;4587;51.434;6.788;2023-08-17T01:03:53;18.30;99.90
9103;DHT22;4587;51.434;6.788;2023-08-17T01:06:18;18.30;99.90
9103;DHT22;4587;51.434;6.788;2023-08-17T01:08:45;18.30;99.90
9103;DHT22;4587;51.434;6.788;2023-08-17T01:14:10;18.20;99.90
9103;DHT22;4587;51.434;6.788;2023-08-17T01:16:51;18.30;99.90
9103;DHT22;4587;51.434;6.788;2023-08-17T01:19:27;18.30;99.90
9103;DHT22;4587;51.434;6.788;2023-08-17T01:21:57;18.30;99.90
9103;DHT22;4587;51.434;6.788;2023-08-17T01:24:24;18.30;99.90
9103;DHT22;4587;51.434;6.788;2023-08-17T01:26:49;18.30;99.90
9103;DHT22;4587;51.434;6.788;2023-08-17T01:29:15;18.30;99.90
9103;DHT22;4587;51.434;6.788;2023-08-17T01:34:19;18.30;99.90
9103;DHT22;4587;51.434;6.788;2023-08-17T01:36:58;18.30;99.90
9103;DHT22;4587;51.434;6.788;2023-08-17T01:39:27;18.30;99.90
9103;DHT22;4587;51.434;6.788;2023-08-17T01:41:57;18.20;99.90
9103;DHT22;4587;51.434;6.788;2023-08-17T01:44:24;18.20;99.90
9103;DHT22;4587;51.434;6.788;2023-08-17T01:46:51;18.20;99.90
9103;DHT22;4587;51.434;6.788;2023-08-17T01:49:17;18.20;99.90
9103;DHT22;4587;51.434;6.788;2023-08-17T01:51:42;18.20;99.90
9103;DHT22;4587;51.434;6.788;2023-08-17T01:54:08;18.20;99.90
9103;DHT22;4587;51.434;6.788;2023-08-17T01:56:50;18.20;99.90
9103;DHT22;4587;51.434;6.788;2023-08-17T01:59:16;18.20;99.90
9103;DHT22;4587;51.434;6.788;2023-08-17T02:05:03;18.10;99.90
9103;DHT22;4587;51.434;6.788;2023-08-17T02:07:29;18.20;99.90
9103;DHT22;4587;51.434;6.788;2023-08-17T02:09:54;18.20;99.90
9103;DHT22;4587;51.434;6.788;2023-08-17T02:12:20;18.10;99.90
9103;DHT22;4587;51.434;6.788;2023-08-17T02:14:45;18.10;99.90
9103;DHT22;4587;51.434;6.788;2023-08-17T02:17:17;18.10;99.90
9103;DHT22;4587;51.434;6.788;2023-08-17T02:23:09;18.10;99.90
9103;DHT22;4587;51.434;6.788;2023-08-17T02:25:40;18.20;99.90
9103;DHT22;4587;51.434;6.788;2023-08-17T02:28:06;18.10;99.90
9103;DHT22;4587;51.434;6.788;2023-08-17T02:30:44;18.10;99.90
9103;DHT22;4587;51.434;6.788;2023-08-17T02:33:09;18.10;99.90
9103;DHT22;4587;51.434;6.788;2023-08-17T02:35:35;18.00;99.90
9103;DHT22;4587;51.434;6.788;2023-08-17T02:38:01;18.00;99.90
9103;DHT22;4587;51.434;6.788;2023-08-17T02:40:26;18.10;99.90
9103;DHT22;4587;51.434;6.788;2023-08-17T02:42:52;18.00;99.90
9103;DHT22;4587;51.434;6.788;2023-08-17T02:45:17;18.00;99.90
9103;DHT22;4587;51.434;6.788;2023-08-17T02:47:43;18.00;99.90
9103;DHT22;4587;51.434;6.788;2023-08-17T02:50:09;18.00;99.90
9103;DHT22;4587;51.434;6.788;2023-08-17T02:52:35;18.00;99.90
9103;DHT22;4587;51.434;6.788;2023-08-17T02:55:00;18.00;99.90
9103;DHT22;4587;51.434;6.788;2023-08-17T02:57:26;18.00;99.90
9103;DHT22;4587;51.434;6.788;2023-08-17T02:59:51;18.00;99.90
9103;DHT22;4587;51.434;6.788;2023-08-17T03:02:17;18.00;99.90
9103;DHT22;4587;51.434;6.788;2023-08-17T03:04:42;18.00;99.90
9103;DHT22;4587;51.434;6.788;2023-08-17T03:07:08;18.00;99.90
9103;DHT22;4587;51.434;6.788;2023-08-17T03:09:33;17.90;99.90
9103;DHT22;4587;51.434;6.788;2023-08-17T03:11:59;17.90;99.90
9103;DHT22;4587;51.434;6.788;2023-08-17T03:14:25;17.90;99.90
9103;DHT22;4587;51.434;6.788;2023-08-17T03:16:50;17.90;99.90
9103;DHT22;4587;51.434;6.788;2023-08-17T03:19:16;17.90;99.90
9103;DHT22;4587;51.434;6.788;2023-08-17T03:21:41;17.90;99.90
9103;DHT22;4587;51.434;6.788;2023-08-17T03:24:30;17.90;99.90
9103;DHT22;4587;51.434;6.788;2023-08-17T03:30:14;17.90;99.90
9103;DHT22;4587;51.434;6.788;2023-08-17T03:32:39;17.90;99.90
9103;DHT22;4587;51.434;6.788;2023-08-17T03:35:09;17.90;99.90
9103;DHT22;4587;51.434;6.788;2023-08-17T03:37:55;17.90;99.90
9103;DHT22;4587;51.434;6.788;2023-08-17T03:40:20;17.80;99.90
9103;DHT22;4587;51.434;6.788;2023-08-17T03:43:17;17.90;99.90
9103;DHT22;4587;51.434;6.788;2023-08-17T03:45:43;17.80;99.90
9103;DHT22;4587;51.434;6.788;2023-08-17T03:48:09;17.80;99.90
9103;DHT22;4587;51.434;6.788;2023-08-17T03:50:34;17.80;99.90
9103;DHT22;4587;51.434;6.788;2023-08-17T03:53:00;17.80;99.90
9103;DHT22;4587;51.434;6.788;2023-08-17T03:55:26;17.80;99.90
9103;DHT22;4587;51.434;6.788;2023-08-17T03:57:51;17.80;99.90
9103;DHT22;4587;51.434;6.788;2023-08-17T04:00:17;17.80;99.90
9103;DHT22;4587;51.434;6.788;2023-08-17T04:02:43;17.80;99.90
9103;DHT22;4587;51.434;6.788;2023-08-17T04:05:09;17.80;99.90
9103;DHT22;4587;51.434;6.788;2023-08-17T04:07:35;17.70;99.90
9103;DHT22;4587;51.434;6.788;2023-08-17T04:10:00;17.70;99.90
9103;DHT22;4587;51.434;6.788;2023-08-17T04:12:26;17.70;99.90
9103;DHT22;4587;51.434;6.788;2023-08-17T04:14:51;17.70;99.90
9103;DHT22;4587;51.434;6.788;2023-08-17T04:17:17;17.80;99.90
9103;DHT22;4587;51.434;6.788;2023-08-17T04:19:42;17.80;99.90
9103;DHT22;4587;51.434;6.788;2023-08-17T04:22:08;17.80;99.90
9103;DHT22;4587;51.434;6.788;2023-08-17T04:24:34;17.70;99.90
9103;DHT22;4587;51.434;6.788;2023-08-17T04:26:59;17.70;99.90
9103;DHT22;4587;51.434;6.788;2023-08-17T04:29:25;17.70;99.90
9103;DHT22;4587;51.434;6.788;2023-08-17T04:31:51;17.70;99.90
9103;DHT22;4587;51.434;6.788;2023-08-17T04:34:17;17.60;99.90
9103;DHT22;4587;51.434;6.788;2023-08-17T04:36:42;17.60;99.90
9103;DHT22;4587;51.434;6.788;2023-08-17T04:39:08;17.50;99.90
9103;DHT22;4587;51.434;6.788;2023-08-17T04:41:34;17.50;99.90
9103;DHT22;4587;51.434;6.788;2023-08-17T04:44:00;17.50;99.90
9103;DHT22;4587;51.434;6.788;2023-08-17T04:46:25;17.50;99.90
9103;DHT22;4587;51.434;6.788;2023-08-17T04:48:51;17.50;99.90
9103;DHT22;4587;51.434;6.788;2023-08-17T04:51:17;17.50;99.90
9103;DHT22;4587;51.434;6.788;2023-08-17T04:53:43;17.60;99.90
9103;DHT22;4587;51.434;6.788;2023-08-17T04:56:09;17.60;99.90
9103;DHT22;4587;51.434;6.788;2023-08-17T04:58:34;17.60;99.90
9103;DHT22;4587;51.434;6.788;2023-08-17T05:01:00;17.60;99.90
9103;DHT22;4587;51.434;6.788;2023-08-17T05:03:25;17.60;99.90
9103;DHT22;4587;51.434;6.788;2023-08-17T05:05:54;17.60;99.90
9103;DHT22;4587;51.434;6.788;2023-08-17T05:08:20;17.70;99.90
9103;DHT22;4587;51.434;6.788;2023-08-17T05:10:47;17.70;99.90
9103;DHT22;4587;51.434;6.788;2023-08-17T05:13:13;17.70;99.90
9103;DHT22;4587;51.434;6.788;2023-08-17T05:15:38;17.80;99.90
9103;DHT22;4587;51.434;6.788;2023-08-17T05:18:04;17.80;99.90
9103;DHT22;4587;51.434;6.788;2023-08-17T05:20:30;17.80;99.90
9103;DHT22;4587;51.434;6.788;2023-08-17T05:22:55;17.80;99.90
9103;DHT22;4587;51.434;6.788;2023-08-17T05:25:21;17.90;99.90
9103;DHT22;4587;51.434;6.788;2023-08-17T05:27:47;17.90;99.90
9103;DHT22;4587;51.434;6.788;2023-08-17T05:30:14;17.90;99.90
9103;DHT22;4587;51.434;6.788;2023-08-17T05:32:41;17.90;99.90
9103;DHT22;4587;51.434;6.788;2023-08-17T05:35:07;18.00;99.90
9103;DHT22;4587;51.434;6.788;2023-08-17T05:38:05;18.00;99.90
9103;DHT22;4587;51.434;6.788;2023-08-17T05:40:32;17.90;99.90
9103;DHT22;4587;51.434;6.788;2023-08-17T05:42:57;17.90;99.90
9103;DHT22;4587;51.434;6.788;2023-08-17T05:45:23;18.00;99.90
9103;DHT22;4587;51.434;6.788;2023-08-17T05:47:49;18.00;99.90
9103;DHT22;4587;51.434;6.788;2023-08-17T05:50:14;18.00;99.90
9103;DHT22;4587;51.434;6.788;2023-08-17T05:52:41;18.00;99.90
9103;DHT22;4587;51.434;6.788;2023-08-17T05:55:06;18.00;99.90
9103;DHT22;4587;51.434;6.788;2023-08-17T05:57:32;18.00;99.90
9103;DHT22;4587;51.434;6.788;2023-08-17T05:59:58;18.00;99.90
9103;DHT22;4587;51.434;6.788;2023-08-17T06:02:23;18.00;99.90
9103;DHT22;4587;51.434;6.788;2023-08-17T06:04:49;18.00;99.90
9103;DHT22;4587;51.434;6.788;2023-08-17T06:07:14;18.10;99.90
9103;DHT22;4587;51.434;6.788;2023-08-17T06:09:40;18.10;99.90
9103;DHT22;4587;51.434;6.788;2023-08-17T06:12:11;18.10;99.90
9103;DHT22;4587;51.434;6.788;2023-08-17T06:14:36;18.10;99.90
9103;DHT22;4587;51.434;6.788;2023-08-17T06:17:02;18.20;99.90
9103;DHT22;4587;51.434;6.788;2023-08-17T06:19:28;18.20;99.90
9103;DHT22;4587;51.434;6.788;2023-08-17T06:21:53;18.30;99.90
9103;DHT22;4587;51.434;6.788;2023-08-17T06:24:19;18.30;99.90
9103;DHT22;4587;51.434;6.788;2023-08-17T06:26:44;18.30;99.90
9103;DHT22;4587;51.434;6.788;2023-08-17T06:29:11;18.30;99.90
9103;DHT22;4587;51.434;6.788;2023-08-17T06:31:37;18.30;99.90
9103;DHT22;4587;51.434;6.788;2023-08-17T06:34:05;18.30;99.90
9103;DHT22;4587;51.434;6.788;2023-08-17T06:36:56;18.30;99.90
9103;DHT22;4587;51.434;6.788;2023-08-17T06:39:22;18.40;99.90
9103;DHT22;4587;51.434;6.788;2023-08-17T06:41:48;18.40;99.90
9103;DHT22;4587;51.434;6.788;2023-08-17T06:44:13;18.40;99.90
9103;DHT22;4587;51.434;6.788;2023-08-17T06:46:39;18.50;99.90
9103;DHT22;4587;51.434;6.788;2023-08-17T06:49:04;18.50;99.90
9103;DHT22;4587;51.434;6.788;2023-08-17T06:51:30;18.50;99.90
9103;DHT22;4587;51.434;6.788;2023-08-17T06:53:55;18.50;99.90
9103;DHT22;4587;51.434;6.788;2023-08-17T06:56:21;18.50;99.90
9103;DHT22;4587;51.434;6.788;2023-08-17T06:58:48;18.50;99.90
9103;DHT22;4587;51.434;6.788;2023-08-17T07:01:13;18.50;99.90
9103;DHT22;4587;51.434;6.788;2023-08-17T07:03:40;18.50;99.90
9103;DHT22;4587;51.434;6.788;2023-08-17T07:06:05;18.50;99.90
9103;DHT22;4587;51.434;6.788;2023-08-17T07:08:31;18.50;99.90
9103;DHT22;4587;51.434;6.788;2023-08-17T07:10:58;18.50;99.90
9103;DHT22;4587;51.434;6.788;2023-08-17T07:13:23;18.60;99.90
9103;DHT22;4587;51.434;6.788;2023-08-17T07:15:49;18.60;99.90
9103;DHT22;4587;51.434;6.788;2023-08-17T07:18:15;18.70;99.90
9103;DHT22;4587;51.434;6.788;2023-08-17T07:20:40;18.70;99.90
9103;DHT22;4587;51.434;6.788;2023-08-17T07:23:06;18.80;99.90
9103;DHT22;4587;51.434;6.788;2023-08-17T07:25:31;18.80;99.90
9103;DHT22;4587;51.434;6.788;2023-08-17T07:27:58;18.80;99.90
9103;DHT22;4587;51.434;6.788;2023-08-17T07:30:23;18.90;99.90
9103;DHT22;4587;51.434;6.788;2023-08-17T07:32:49;18.90;99.90
9103;DHT22;4587;51.434;6.788;2023-08-17T07:35:15;18.90;99.90
9103;DHT22;4587;51.434;6.788;2023-08-17T07:37:40;18.90;99.90
9103;DHT22;4587;51.434;6.788;2023-08-17T07:40:06;18.90;99.90
9103;DHT22;4587;51.434;6.788;2023-08-17T07:42:33;18.90;99.90
9103;DHT22;4587;51.434;6.788;2023-08-17T07:44:58;19.00;99.90
9103;DHT22;4587;51.434;6.788;2023-08-17T07:47:24;19.10;99.90
9103;DHT22;4587;51.434;6.788;2023-08-17T07:49:50;19.10;99.90
9103;DHT22;4587;51.434;6.788;2023-08-17T07:52:15;19.20;99.90
9103;DHT22;4587;51.434;6.788;2023-08-17T07:54:41;19.20;99.90
9103;DHT22;4587;51.434;6.788;2023-08-17T07:57:06;19.20;99.90
9103;DHT22;4587;51.434;6.788;2023-08-17T07:59:32;19.10;99.90
9103;DHT22;4587;51.434;6.788;2023-08-17T08:01:58;19.20;99.90
9103;DHT22;4587;51.434;6.788;2023-08-17T08:04:23;19.20;99.90
9103;DHT22;4587;51.434;6.788;2023-08-17T08:06:49;19.20;99.90
9103;DHT22;4587;51.434;6.788;2023-08-17T08:09:14;19.30;99.90
9103;DHT22;4587;51.434;6.788;2023-08-17T08:11:40;19.30;99.90
9103;DHT22;4587;51.434;6.788;2023-08-17T08:14:05;19.40;99.90
9103;DHT22;4587;51.434;6.788;2023-08-17T08:16:31;19.40;99.90
9103;DHT22;4587;51.434;6.788;2023-08-17T08:18:57;19.40;99.90
9103;DHT22;4587;51.434;6.788;2023-08-17T08:21:22;19.40;99.90
9103;DHT22;4587;51.434;6.788;2023-08-17T08:23:48;19.40;99.90
9103;DHT22;4587;51.434;6.788;2023-08-17T08:26:13;19.40;99.90
9103;DHT22;4587;51.434;6.788;2023-08-17T08:28:39;19.40;99.90
9103;DHT22;4587;51.434;6.788;2023-08-17T08:31:05;19.40;99.90
9103;DHT22;4587;51.434;6.788;2023-08-17T08:33:31;19.40;99.90
9103;DHT22;4587;51.434;6.788;2023-08-17T08:35:57;19.40;99.90
9103;DHT22;4587;51.434;6.788;2023-08-17T08:38:23;19.50;99.90
9103;DHT22;4587;51.434;6.788;2023-08-17T08:40:49;19.50;99.90
9103;DHT22;4587;51.434;6.788;2023-08-17T08:43:15;19.60;99.90
9103;DHT22;4587;51.434;6.788;2023-08-17T08:45:45;19.60;99.90
9103;DHT22;4587;51.434;6.788;2023-08-17T08:48:15;19.60;99.90
9103;DHT22;4587;51.434;6.788;2023-08-17T08:50:42;19.60;99.90
9103;DHT22;4587;51.434;6.788;2023-08-17T08:53:13;19.50;99.90
9103;DHT22;4587;51.434;6.788;2023-08-17T08:55:52;19.50;99.90
9103;DHT22;4587;51.434;6.788;2023-08-17T08:58:21;19.50;99.90
9103;DHT22;4587;51.434;6.788;2023-08-17T09:00:47;19.40;99.90
9103;DHT22;4587;51.434;6.788;2023-08-17T09:03:15;19.40;99.90
9103;DHT22;4587;51.434;6.788;2023-08-17T09:05:45;19.40;99.90
9103;DHT22;4587;51.434;6.788;2023-08-17T09:08:12;19.40;99.90
9103;DHT22;4587;51.434;6.788;2023-08-17T09:10:38;19.40;99.90
9103;DHT22;4587;51.434;6.788;2023-08-17T09:13:04;19.40;99.90
9103;DHT22;4587;51.434;6.788;2023-08-17T09:15:30;19.40;99.90
9103;DHT22;4587;51.434;6.788;2023-08-17T09:17:56;19.40;99.90
9103;DHT22;4587;51.434;6.788;2023-08-17T09:20:42;19.40;99.90
9103;DHT22;4587;51.434;6.788;2023-08-17T09:23:16;19.50;99.90
9103;DHT22;4587;51.434;6.788;2023-08-17T09:25:43;19.60;99.90
9103;DHT22;4587;51.434;6.788;2023-08-17T09:28:14;19.60;99.90
9103;DHT22;4587;51.434;6.788;2023-08-17T09:33:25;19.60;99.90
9103;DHT22;4587;51.434;6.788;2023-08-17T09:35:52;19.60;99.90
9103;DHT22;4587;51.434;6.788;2023-08-17T09:38:19;19.60;99.90
9103;DHT22;4587;51.434;6.788;2023-08-17T09:40:45;19.60;99.90
9103;DHT22;4587;51.434;6.788;2023-08-17T09:43:11;19.60;99.90
9103;DHT22;4587;51.434;6.788;2023-08-17T09:45:38;19.70;99.90
9103;DHT22;4587;51.434;6.788;2023-08-17T09:48:05;19.70;99.90
9103;DHT22;4587;51.434;6.788;2023-08-17T09:50:31;19.70;99.90
9103;DHT22;4587;51.434;6.788;2023-08-17T09:52:57;19.70;99.90
9103;DHT22;4587;51.434;6.788;2023-08-17T09:55:23;19.70;99.90
9103;DHT22;4587;51.434;6.788;2023-08-17T09:57:50;19.70;99.90
9103;DHT22;4587;51.434;6.788;2023-08-17T10:00:16;19.70;99.90
9103;DHT22;4587;51.434;6.788;2023-08-17T10:02:50;19.80;99.90
9103;DHT22;4587;51.434;6.788;2023-08-17T10:05:20;19.80;99.90
9103;DHT22;4587;51.434;6.788;2023-08-17T10:07:54;19.90;99.90
9103;DHT22;4587;51.434;6.788;2023-08-17T10:10:25;20.00;99.90
9103;DHT22;4587;51.434;6.788;2023-08-17T10:13:09;20.10;99.90
9103;DHT22;4587;51.434;6.788;2023-08-17T10:15:38;20.10;99.90
9103;DHT22;4587;51.434;6.788;2023-08-17T10:18:29;20.10;99.90
9103;DHT22;4587;51.434;6.788;2023-08-17T10:21:13;20.20;99.90
9103;DHT22;4587;51.434;6.788;2023-08-17T10:23:41;20.20;99.90
9103;DHT22;4587;51.434;6.788;2023-08-17T10:26:07;20.30;99.90
9103;DHT22;4587;51.434;6.788;2023-08-17T10:28:34;20.30;99.90
9103;DHT22;4587;51.434;6.788;2023-08-17T10:31:00;20.30;99.90
9103;DHT22;4587;51.434;6.788;2023-08-17T10:33:26;20.40;99.90
9103;DHT22;4587;51.434;6.788;2023-08-17T10:35:53;20.40;99.90
9103;DHT22;4587;51.434;6.788;2023-08-17T10:38:19;20.40;99.90
9103;DHT22;4587;51.434;6.788;2023-08-17T10:40:45;20.50;99.90
9103;DHT22;4587;51.434;6.788;2023-08-17T10:43:10;20.50;99.90
9103;DHT22;4587;51.434;6.788;2023-08-17T10:45:37;20.60;99.90
9103;DHT22;4587;51.434;6.788;2023-08-17T10:50:32;21.10;99.90
9103;DHT22;4587;51.434;6.788;2023-08-17T10:53:04;21.30;99.90
9103;DHT22;4587;51.434;6.788;2023-08-17T10:55:57;21.40;99.90
9103;DHT22;4587;51.434;6.788;2023-08-17T10:58:22;21.70;99.90
9103;DHT22;4587;51.434;6.788;2023-08-17T11:00:54;21.90;99.90
9103;DHT22;4587;51.434;6.788;2023-08-17T11:03:21;22.00;99.90
9103;DHT22;4587;51.434;6.788;2023-08-17T11:05:51;21.90;99.90
9103;DHT22;4587;51.434;6.788;2023-08-17T11:08:31;21.90;99.90
9103;DHT22;4587;51.434;6.788;2023-08-17T11:10:58;21.90;99.90
9103;DHT22;4587;51.434;6.788;2023-08-17T11:13:28;21.90;99.90
9103;DHT22;4587;51.434;6.788;2023-08-17T11:15:54;21.80;99.90
9103;DHT22;4587;51.434;6.788;2023-08-17T11:18:20;21.70;99.90
9103;DHT22;4587;51.434;6.788;2023-08-17T11:20:50;21.70;99.90
9103;DHT22;4587;51.434;6.788;2023-08-17T11:23:16;21.60;99.90
9103;DHT22;4587;51.434;6.788;2023-08-17T11:25:42;21.60;99.90
9103;DHT22;4587;51.434;6.788;2023-08-17T11:28:08;21.50;99.90
9103;DHT22;4587;51.434;6.788;2023-08-17T11:30:35;21.50;99.90
9103;DHT22;4587;51.434;6.788;2023-08-17T11:33:02;21.60;99.90
9103;DHT22;4587;51.434;6.788;2023-08-17T11:35:28;21.60;99.90
9103;DHT22;4587;51.434;6.788;2023-08-17T11:37:54;21.60;99.90
9103;DHT22;4587;51.434;6.788;2023-08-17T11:40:19;21.60;99.90
9103;DHT22;4587;51.434;6.788;2023-08-17T11:42:46;21.60;99.90
9103;DHT22;4587;51.434;6.788;2023-08-17T11:45:12;21.70;99.90
9103;DHT22;4587;51.434;6.788;2023-08-17T11:47:38;21.80;99.90
9103;DHT22;4587;51.434;6.788;2023-08-17T11:50:06;21.90;99.90
9103;DHT22;4587;51.434;6.788;2023-08-17T11:52:32;21.90;99.90
9103;DHT22;4587;51.434;6.788;2023-08-17T11:55:08;21.90;99.90
9103;DHT22;4587;51.434;6.788;2023-08-17T11:57:37;21.90;99.90
9103;DHT22;4587;51.434;6.788;2023-08-17T12:00:04;21.90;99.90
9103;DHT22;4587;51.434;6.788;2023-08-17T12:02:35;21.90;99.90
9103;DHT22;4587;51.434;6.788;2023-08-17T12:05:04;21.80;99.90
9103;DHT22;4587;51.434;6.788;2023-08-17T12:07:33;21.70;99.90
9103;DHT22;4587;51.434;6.788;2023-08-17T12:09:58;21.70;99.90
9103;DHT22;4587;51.434;6.788;2023-08-17T12:12:24;21.70;99.90
9103;DHT22;4587;51.434;6.788;2023-08-17T12:14:50;21.70;99.90
9103;DHT22;4587;51.434;6.788;2023-08-17T12:17:16;21.70;99.90
9103;DHT22;4587;51.434;6.788;2023-08-17T12:19:43;21.70;99.90
9103;DHT22;4587;51.434;6.788;2023-08-17T12:22:09;21.70;99.90
9103;DHT22;4587;51.434;6.788;2023-08-17T12:24:37;21.70;99.90
9103;DHT22;4587;51.434;6.788;2023-08-17T12:27:02;21.70;99.90
9103;DHT22;4587;51.434;6.788;2023-08-17T12:29:28;21.70;99.90
9103;DHT22;4587;51.434;6.788;2023-08-17T12:31:57;21.80;99.90
9103;DHT22;4587;51.434;6.788;2023-08-17T12:34:22;21.80;99.90
9103;DHT22;4587;51.434;6.788;2023-08-17T12:36:49;21.80;99.90
9103;DHT22;4587;51.434;6.788;2023-08-17T12:39:15;21.70;99.90
9103;DHT22;4587;51.434;6.788;2023-08-17T12:41:40;21.60;99.90
9103;DHT22;4587;51.434;6.788;2023-08-17T12:44:06;21.60;99.90
9103;DHT22;4587;51.434;6.788;2023-08-17T12:46:31;21.50;99.90
9103;DHT22;4587;51.434;6.788;2023-08-17T12:48:59;21.40;99.90
9103;DHT22;4587;51.434;6.788;2023-08-17T12:51:24;21.40;99.90
9103;DHT22;4587;51.434;6.788;2023-08-17T12:53:50;21.50;99.90
9103;DHT22;4587;51.434;6.788;2023-08-17T12:56:15;21.40;99.90
9103;DHT22;4587;51.434;6.788;2023-08-17T12:58:41;21.50;99.90
9103;DHT22;4587;51.434;6.788;2023-08-17T13:01:07;21.50;99.90
9103;DHT22;4587;51.434;6.788;2023-08-17T13:03:32;21.40;99.90
9103;DHT22;4587;51.434;6.788;2023-08-17T13:05:58;21.40;99.90
9103;DHT22;4587;51.434;6.788;2023-08-17T13:08:23;21.30;99.90
9103;DHT22;4587;51.434;6.788;2023-08-17T13:10:49;21.40;99.90
9103;DHT22;4587;51.434;6.788;2023-08-17T13:13:15;21.40;99.90
9103;DHT22;4587;51.434;6.788;2023-08-17T13:15:40;21.40;99.90
9103;DHT22;4587;51.434;6.788;2023-08-17T13:18:07;21.40;99.90
9103;DHT22;4587;51.434;6.788;2023-08-17T13:20:33;21.30;99.90
9103;DHT22;4587;51.434;6.788;2023-08-17T13:22:59;21.40;99.90
9103;DHT22;4587;51.434;6.788;2023-08-17T13:25:24;21.30;99.90
9103;DHT22;4587;51.434;6.788;2023-08-17T13:27:50;21.30;99.90
9103;DHT22;4587;51.434;6.788;2023-08-17T13:30:16;21.30;99.90
9103;DHT22;4587;51.434;6.788;2023-08-17T13:32:41;21.40;99.90
9103;DHT22;4587;51.434;6.788;2023-08-17T13:35:08;21.30;99.90
9103;DHT22;4587;51.434;6.788;2023-08-17T13:37:36;21.30;99.90
9103;DHT22;4587;51.434;6.788;2023-08-17T13:40:02;21.20;99.90
9103;DHT22;4587;51.434;6.788;2023-08-17T13:42:27;21.20;99.90
9103;DHT22;4587;51.434;6.788;2023-08-17T13:44:53;21.20;99.90
9103;DHT22;4587;51.434;6.788;2023-08-17T13:47:19;21.20;99.90
9103;DHT22;4587;51.434;6.788;2023-08-17T13:49:44;21.30;99.90
9103;DHT22;4587;51.434;6.788;2023-08-17T13:52:10;21.30;99.90
9103;DHT22;4587;51.434;6.788;2023-08-17T13:54:36;21.30;99.90
9103;DHT22;4587;51.434;6.788;2023-08-17T13:57:02;21.30;99.90
9103;DHT22;4587;51.434;6.788;2023-08-17T13:59:27;21.30;99.90
9103;DHT22;4587;51.434;6.788;2023-08-17T14:01:55;21.30;99.90
9103;DHT22;4587;51.434;6.788;2023-08-17T14:04:21;21.30;99.90
9103;DHT22;4587;51.434;6.788;2023-08-17T14:06:47;21.30;99.90
9103;DHT22;4587;51.434;6.788;2023-08-17T14:09:13;21.40;99.90
9103;DHT22;4587;51.434;6.788;2023-08-17T14:11:39;21.40;99.90
9103;DHT22;4587;51.434;6.788;2023-08-17T14:14:04;21.50;99.90
9103;DHT22;4587;51.434;6.788;2023-08-17T14:16:30;21.50;99.90
9103;DHT22;4587;51.434;6.788;2023-08-17T14:18:56;21.50;99.90
9103;DHT22;4587;51.434;6.788;2023-08-17T14:21:21;21.50;99.90
9103;DHT22;4587;51.434;6.788;2023-08-17T14:23:47;21.40;99.90
9103;DHT22;4587;51.434;6.788;2023-08-17T14:26:12;21.40;99.90
9103;DHT22;4587;51.434;6.788;2023-08-17T14:28:38;21.30;99.90
9103;DHT22;4587;51.434;6.788;2023-08-17T14:31:04;21.30;99.90
9103;DHT22;4587;51.434;6.788;2023-08-17T14:33:29;21.30;99.90
9103;DHT22;4587;51.434;6.788;2023-08-17T14:35:55;21.30;99.90
9103;DHT22;4587;51.434;6.788;2023-08-17T14:38:20;21.40;99.90
9103;DHT22;4587;51.434;6.788;2023-08-17T14:40:47;21.40;99.90
9103;DHT22;4587;51.434;6.788;2023-08-17T14:43:14;21.40;99.90
9103;DHT22;4587;51.434;6.788;2023-08-17T14:45:40;21.50;99.90
9103;DHT22;4587;51.434;6.788;2023-08-17T14:48:06;21.40;99.90
9103;DHT22;4587;51.434;6.788;2023-08-17T14:50:36;21.40;99.90
9103;DHT22;4587;51.434;6.788;2023-08-17T14:53:02;21.50;99.90
9103;DHT22;4587;51.434;6.788;2023-08-17T14:55:30;21.60;99.90
9103;DHT22;4587;51.434;6.788;2023-08-17T14:57:55;21.50;99.90
9103;DHT22;4587;51.434;6.788;2023-08-17T15:00:21;21.60;99.90
9103;DHT22;4587;51.434;6.788;2023-08-17T15:02:47;21.80;99.90
9103;DHT22;4587;51.434;6.788;2023-08-17T15:05:12;21.90;99.90
9103;DHT22;4587;51.434;6.788;2023-08-17T15:07:38;22.00;99.90
9103;DHT22;4587;51.434;6.788;2023-08-17T15:10:04;22.10;99.90
9103;DHT22;4587;51.434;6.788;2023-08-17T15:12:29;22.10;99.90
9103;DHT22;4587;51.434;6.788;2023-08-17T15:14:55;22.20;99.90
9103;DHT22;4587;51.434;6.788;2023-08-17T15:17:20;22.20;99.90
9103;DHT22;4587;51.434;6.788;2023-08-17T15:19:46;22.30;99.90
9103;DHT22;4587;51.434;6.788;2023-08-17T15:22:12;22.40;99.90
9103;DHT22;4587;51.434;6.788;2023-08-17T15:24:37;22.40;99.90
9103;DHT22;4587;51.434;6.788;2023-08-17T15:27:03;22.50;99.90
9103;DHT22;4587;51.434;6.788;2023-08-17T15:29:28;22.60;99.90
9103;DHT22;4587;51.434;6.788;2023-08-17T15:31:54;22.70;99.90
9103;DHT22;4587;51.434;6.788;2023-08-17T15:34:20;22.80;99.90
9103;DHT22;4587;51.434;6.788;2023-08-17T15:36:45;22.80;99.90
9103;DHT22;4587;51.434;6.788;2023-08-17T15:39:11;22.80;99.90
9103;DHT22;4587;51.434;6.788;2023-08-17T15:41:37;22.80;99.90
9103;DHT22;4587;51.434;6.788;2023-08-17T15:44:03;22.70;99.90
9103;DHT22;4587;51.434;6.788;2023-08-17T15:46:29;22.60;99.90
9103;DHT22;4587;51.434;6.788;2023-08-17T15:48:56;22.50;99.90
9103;DHT22;4587;51.434;6.788;2023-08-17T15:51:22;22.50;99.90
9103;DHT22;4587;51.434;6.788;2023-08-17T15:53:48;22.50;99.90
9103;DHT22;4587;51.434;6.788;2023-08-17T15:56:14;22.40;99.90
9103;DHT22;4587;51.434;6.788;2023-08-17T15:58:40;22.40;99.90
9103;DHT22;4587;51.434;6.788;2023-08-17T16:01:06;22.30;99.90
9103;DHT22;4587;51.434;6.788;2023-08-17T16:03:32;22.30;99.90
9103;DHT22;4587;51.434;6.788;2023-08-17T16:05:57;22.20;99.90
9103;DHT22;4587;51.434;6.788;2023-08-17T16:08:23;22.20;99.90
9103;DHT22;4587;51.434;6.788;2023-08-17T16:10:48;22.20;99.90
9103;DHT22;4587;51.434;6.788;2023-08-17T16:13:14;22.20;99.90
9103;DHT22;4587;51.434;6.788;2023-08-17T16:15:40;22.20;99.90
9103;DHT22;4587;51.434;6.788;2023-08-17T16:18:05;22.10;99.90
9103;DHT22;4587;51.434;6.788;2023-08-17T16:20:31;22.10;99.90
9103;DHT22;4587;51.434;6.788;2023-08-17T16:22:59;22.00;99.90
9103;DHT22;4587;51.434;6.788;2023-08-17T16:25:25;22.10;99.90